METAR Data
IDs: Format: Raw Decoded Include TAF

Data at: 2135 UTC 21 May 2022

METAR for:WSSL (Singapore/Seletar Ar, 2, SG)
Text:WSSL 212100Z VRB02KT 9999 FEW016 BKN300 27/26 Q1007
Temperature: 27.0°C ( 81°F)
Dewpoint: 26.0°C ( 79°F) [RH = 94%]
Pressure (altimeter):29.73 inches Hg (1007.0 mb)
Winds:variable direction winds at 2 MPH (2 knots; 1.0 m/s)
Visibility:6 or more sm (10+ km)
Ceiling:30000 feet AGL
Clouds: few clouds at 1600 feet AGL, broken clouds at 30000 feet AGL

TAF for:WSSL (Singapore/Seletar Ar, 2, SG) issued at 1700 UTC 21 May 2022
Text:TAF WSSL 211700Z 2118/2300 21007KT 9999 FEW015 SCT020
Forecast period:1800 UTC 21 May 2022 to 0000 UTC 23 May 2022
Forecast type:FROM: standard forecast or significant change
Winds:from the SSW (210 degrees) at 8 MPH (7 knots; 3.6 m/s)
Visibility:6 or more sm (10+ km)
Ceiling:at least 12,000 feet AGL
Clouds: few clouds at 1500 feet AGL, scattered clouds at 2000 feet AGL
Text:TEMPO 2122/2202 3000 TSRA FEW012CB BKN015
Forecast period:2200 UTC 21 May 2022 to 0200 UTC 22 May 2022
Forecast type:TEMPORARY: The following changes expected for less than half the time period
Visibility: 1.86 sm ( 2.99 km)
Ceiling:1500 feet AGL
Clouds: few clouds at 1200 feet AGL, broken clouds at 1500 feet AGL
Weather:TSRA (rain associated with thunderstorm(s))